Situs API Video Gratis Terbaik

AVDBAPI.COM

Cari katalog, periksa data, dan salin URL API bersih dari satu dasbor cepat.

Telegram Gabung komunitas Telegram untuk update!
Today
0
Pembaruan Hari Ini
Censored
314089
Video Disensor
Total
474268
Total Video

Daftar Video

Data terbaru diurutkan berdasarkan waktu pembaruan.

ID Nama CODE Kategori Diperbarui API
270620 FC2-PPV-1053728 [Tanpa Sensor] [Harta Karun!!] Bocoran Yuki Kiyoshi [Termasuk file zip yang bisa diunduh] Yuki Kiyoshi gana-1414 Shot pertama yang sangat lembut. 866 di Ikebukuro FC2-PPV-1053728 Tanpa sensor 2025-08-29 19:41:40 API
270619 061517_540 Si Cantik Pemangsa yang Sangat Seksi Datang ke Rumah Amatir untuk Ngentot 061517_540 Tanpa sensor 2025-08-29 19:41:30 API
270618 OYC-112 Rumahku Jadi Tempat Nongkrong Para Gal, Dan Ada Satu Gal Murahan Yang Mau Dikentot Kapan Saja Sesukamu! 2 OYC-112 Disensor (Mosaik) 2025-08-29 19:41:20 API
270617 HEYZO-2054 Tunangan Cantik dan Terpandangku Ternyata Main Gila dengan Ayahku HEYZO-2054 Tanpa sensor 2025-08-29 19:41:10 API
270616 H0930-KI190404 Shoko Furuta Wanita Seksi Usia 32 Tahun H0930-KI190404 Tanpa sensor 2025-08-29 19:41:00 API
270615 C0930-KI181111 Ayaka Sato Wanita Seksi Usia 28 Tahun C0930-KI181111 Tanpa sensor 2025-08-29 19:40:50 API
270614 K1324 Wanita Mangsa K1324 Tanpa sensor 2025-08-29 19:40:40 API
270613 061717_541 Malaikat Berseragam yang Pemalu 061717_541 Tanpa sensor 2025-08-29 19:40:30 API
270612 H4610-TK0014 Gadis 20 Tahun Chisato Minehara H4610-TK0014 Tanpa sensor 2025-08-29 19:40:20 API
270611 041218-248 Merayu Ibu Rumah Tangga 38 Thn ~ Pengintip Rahasia... Ibu Dengan Puting Panjang Seksi 041218-248 Tanpa sensor 2025-08-29 19:40:10 API
270610 082219-990 Versi Tak Rilis ~ Mania Bokong Khusus Untukmu ~ Yuuna Himekawa 082219-990 Tanpa sensor 2025-08-29 19:40:00 API
270609 H0930-KI190407 Wanita Matang 40 Tahun Yoshie Tomizawa H0930-KI190407 Tanpa sensor 2025-08-29 19:39:50 API
270607 C0930-HITOZUMA1261 Istri Matang 38 Tahun Sugiyama Tamao C0930-HITOZUMA1261 Tanpa sensor 2025-08-29 19:39:30 API
270605 FC2-PPV-1040390 [Uncensored] [Full Version] Bocoran Eiro Chika SERO-0028 Telan Sperma di Sekolah Persiapan FC2-PPV-1040390 Tanpa sensor 2025-08-29 19:39:10 API
270604 092318-01 Kompilasi Amatir Paling Hot Bagian 2 092318-01 Tanpa sensor 2025-08-29 19:39:00 API
270603 062017_542 Salah Terjemah! Ami Tsuchiya pakai kacamata hitam sambil riding saddle! 062017_542 Tanpa sensor 2025-08-29 19:38:50 API
270601 H0930-ORI1531 Wanita Seksi 38 Tahun Katsumi Nakatsuji H0930-ORI1531 Tanpa sensor 2025-08-29 19:38:30 API
270600 H4610-KI200308 Mai Katagiri Wanita Cantik Usia 26 Tahun H4610-KI200308 Tanpa sensor 2025-08-29 19:38:20 API
270599 C0930-KI181110 Video Selfie Masturbasi yang Sangat Menggairahkan C0930-KI181110 Tanpa sensor 2025-08-29 19:38:10 API
270598 082319-991 Debut Vol.50 ~ Si Pelacur yang Happy dengan Gap Moe! ~ Mikuro Komori 082319-991 Tanpa sensor 2025-08-29 19:38:00 API
270597 HEYZO-2056 Hostess Kelas Atas Dengan Tangan Sakti Ingin Ditusuk! ?? -Jual bantal juga lho- HEYZO-2056 Tanpa sensor 2025-08-29 19:37:50 API
270596 041418-249 Seks Brutal Bareng Wanita Matang yang Cantik Sekali 041418-249 Tanpa sensor 2025-08-29 19:37:40 API
270595 092418-01 Koleksi Memek Pilihan Terbaik - Silakan Lihat Kedalaman Memeknya - 092418-01 Tanpa sensor 2025-08-29 19:37:30 API
270594 H0930-KI190406 Koleksi Permintaan Spesial Paling Hot H0930-KI190406 Tanpa sensor 2025-08-29 19:37:20 API
270593 K1325 Wanita Mangsa - K1325 Tanpa sensor 2025-08-29 19:37:10 API
270592 062117_001 Video Vertikal HP: Reina Shiraishi Pakai Baju Renang Sekolah Dicokot Gaya Cowgirl Raw 062117_001 Tanpa sensor 2025-08-29 19:37:00 API
270591 C0930-KI181113 Hoshina Masumi - Gadis 20 Tahun C0930-KI181113 Tanpa sensor 2025-08-29 19:36:50 API
270590 H4610-KI200307 Gold Pack Spesial Untuk Babe 20 Tahun H4610-KI200307 Tanpa sensor 2025-08-29 19:36:40 API
270588 FC2-PPV-943067 Istri Muda Hot Dikentot Tanpa Sensor di Hotel FC2-PPV-943067 Tanpa sensor 2025-08-29 19:36:20 API
270587 HEYZO-2058 Kenikmatan Lewat Massage Erotis! ~ Kanna Sakuno ~ HEYZO-2058 Tanpa sensor 2025-08-29 19:36:10 API
270586 041718-250 Istriku, biarkan aku beli celana dalam yang kupakai sekarang! ~ Celana dalam warna pastel milik ibu rumah tangga desa ~ 041718-250 Tanpa sensor 2025-08-29 19:36:00 API
270585 062317_543 Reiko Yamanaka, istri tetangga yang nakal tanpa bra saat buang sampah di pagi hari 062317_543 Tanpa sensor 2025-08-29 19:35:50 API
270584 082419-992 Haruka Aizawa, wanita penggoda yang bisa berbuat sesuka hati hanya karena kehilangan paspor 082419-992 Tanpa sensor 2025-08-29 19:35:40 API
270583 H0930-KI190409 Risa Tamai, 31 Tahun H0930-KI190409 Tanpa sensor 2025-08-29 19:35:30 API
270582 C0930-KI181115 Takako Nakao, Wanita Cantik Usia 30 Tahun C0930-KI181115 Tanpa sensor 2025-08-29 19:35:20 API
270581 092718-01 Cewek Kacamata Pecandu Sex Toy 092718-01 Tanpa sensor 2025-08-29 19:35:10 API
270579 FC2-PPV-1049731 [Uncensored Leak] Bocoran Video Ayami Shunka 2 - Situasi Terjepit Tanpa Ampun ABP-566 FC2-PPV-1049731 Tanpa sensor 2025-08-29 19:34:50 API
270578 HEYZO-2057 Puas-puasan makan wanita matang montok berpayudara besar! !! HEYZO-2057 Tanpa sensor 2025-08-29 19:34:40 API
270577 H4610-KI200310 Miku Ichikawa Gadis Hot Usia 19 Tahun H4610-KI200310 Tanpa sensor 2025-08-29 19:34:30 API
270576 C0930-KI181118 Gadis Seksi 23 Tahun Mako Ikegami C0930-KI181118 Tanpa sensor 2025-08-29 19:34:20 API
270575 062717_545 Istri Tetangga yang Nakal Tanpa Bra Saat Buang Sampah di Pagi Hari 062717_545 Tanpa sensor 2025-08-29 19:34:10 API
270572 H0930-KI190411 Sei Manabe Wanita 35 Tahun yang Seksi H0930-KI190411 Tanpa sensor 2025-08-29 19:33:40 API
270571 HEYZO-2082 Megan - Gadis Putih 18 Tahun yang Genit Minta Ditembak Sperma HEYZO-2082 Tanpa sensor 2025-08-29 19:33:30 API
270570 FC2-PPV-1642820 [Uncensored] Enak banget ngentot mentah sambil chattingan sama mahasiswi cantik model majalah FC2-PPV-1642820 Tanpa sensor 2025-08-29 19:33:20 API
270569 041818-251 Buku Foto Memek Istri Orang Vol 70 041818-251 Tanpa sensor 2025-08-29 19:33:10 API
270568 092918-01 Seks Sama Pacar Masih Belum Cukup Puas 092918-01 Tanpa sensor 2025-08-29 19:33:00 API
270567 062817_001 Video Vertikal Smartphone: Gadis Baju Renang Sekolah Dicopet Posisi Cowgirl Raw 062817_001 Tanpa sensor 2025-08-29 19:32:50 API
270566 HEYZO-2059 Skandal panas saat aku main gila dengan adik pacarku HEYZO-2059 Tanpa sensor 2025-08-29 19:32:40 API
270565 H4610-KI200315 Gadis Cantik 22 Tahun Miai Aoki H4610-KI200315 Tanpa sensor 2025-08-29 19:32:30 API
270564 K1327 Wanita Mangsa K1327 Tanpa sensor 2025-08-29 19:32:20 API